Аэропорт: Чебоксары. Чебоксары

ICAO: UWKS

METAR:
2021-07-28 13:30:00
UWKS 281330Z 30004MPS 250V320 CAVOK 23/07 Q1015 R24/010060 NOSIG RMK QFE747
METAR:
2021-07-28 10:46:00
TAF UWKS 281046Z 2812/2821 29003MPS 9999 SCT040 TX24/2812Z TN15/2821Z